Time;durP1;ratioP1;P1;durP2;ratioP2;P2;SDS_P1;SDS_P2;PMS_P1;PMS_P2;Temp;Humidity;BMP_temperature;BMP_pressure;BME280_temperature;BME280_humidity;BME280_pressure;Samples;Min_cycle;Max_cycle;Signal;HPM_P1;HPM_P2
2021/10/30 00:02:05;;;;;;;2.60;0.75;;;;;;;;;;5054867;28;20056;-66
2021/10/30 00:04:30;;;;;;;1.88;0.60;;;;;;;;;;5054971;28;20487;-66
2021/10/30 00:06:56;;;;;;;0.47;0.40;;;;;;;;;;5054766;28;20036;-66
2021/10/30 00:09:21;;;;;;;1.60;0.73;;;;;;;;;;5055254;28;20028;-67
2021/10/30 00:11:47;;;;;;;2.17;0.68;;;;;;;;;;5053423;28;20067;-66
2021/10/30 00:14:12;;;;;;;1.20;0.60;;;;;;;;;;5054881;28;20040;-66
2021/10/30 00:16:37;;;;;;;2.60;0.88;;;;;;;;;;5054801;28;20115;-66
2021/10/30 00:19:03;;;;;;;2.92;0.68;;;;;;;;;;5053796;28;20024;-67
2021/10/30 00:21:29;;;;;;;1.35;0.70;;;;;;;;;;5054585;28;20013;-66
2021/10/30 00:23:55;;;;;;;0.82;0.52;;;;;;;;;;5054603;28;20411;-66
2021/10/30 00:26:20;;;;;;;3.05;1.05;;;;;;;;;;5054512;28;20025;-67
2021/10/30 00:28:45;;;;;;;1.70;0.38;;;;;;;;;;5054606;28;20021;-66
2021/10/30 00:31:10;;;;;;;0.82;0.50;;;;;;;;;;5054783;28;20104;-65
2021/10/30 00:33:35;;;;;;;1.42;0.55;;;;;;;;;;5054417;28;20108;-66
2021/10/30 00:36:01;;;;;;;1.67;0.98;;;;;;;;;;5054704;28;20399;-67
2021/10/30 00:38:26;;;;;;;0.80;0.68;;;;;;;;;;5054259;28;20032;-66
2021/10/30 00:40:51;;;;;;;1.20;0.55;;;;;;;;;;5054292;28;20028;-65
2021/10/30 00:43:17;;;;;;;0.93;0.40;;;;;;;;;;5054491;28;20025;-66
2021/10/30 00:45:46;;;;;;;3.05;0.70;;;;;;;;;;5054052;28;20013;-67
2021/10/30 00:48:11;;;;;;;2.00;0.90;;;;;;;;;;5054055;28;20020;-66
2021/10/30 00:50:36;;;;;;;0.80;0.60;;;;;;;;;;5054147;28;20028;-66
2021/10/30 00:53:02;;;;;;;2.30;0.57;;;;;;;;;;5054246;28;20478;-66
2021/10/30 00:55:28;;;;;;;3.50;0.82;;;;;;;;;;5054308;28;20028;-67
2021/10/30 00:57:54;;;;;;;0.75;0.43;;;;;;;;;;5054061;28;20500;-66
2021/10/30 01:00:19;;;;;;;3.80;0.70;;;;;;;;;;5053965;28;20013;-67
2021/10/30 01:02:45;;;;;;;1.70;0.67;;;;;;;;;;5053797;28;20483;-67
2021/10/30 01:05:10;;;;;;;1.80;0.60;;;;;;;;;;5054136;28;20270;-66
2021/10/30 01:07:36;;;;;;;0.57;0.40;;;;;;;;;;5053550;28;20127;-65
2021/10/30 01:10:01;;;;;;;0.88;0.55;;;;;;;;;;5052756;28;20063;-67
2021/10/30 01:12:26;;;;;;;3.92;0.68;;;;;;;;;;5053131;28;20021;-67
2021/10/30 01:14:52;;;;;;;0.93;0.40;;;;;;;;;;5053771;28;20699;-66
2021/10/30 01:17:18;;;;;;;2.90;0.50;;;;;;;;;;5053932;28;20023;-66
2021/10/30 01:19:43;;;;;;;1.23;0.45;;;;;;;;;;5053436;28;20027;-66
2021/10/30 01:22:09;;;;;;;0.57;0.40;;;;;;;;;;5053706;28;20021;-66
2021/10/30 01:24:34;;;;;;;1.42;0.43;;;;;;;;;;5053471;28;20113;-66
2021/10/30 01:26:59;;;;;;;1.20;0.52;;;;;;;;;;5053400;28;20045;-67
2021/10/30 01:29:25;;;;;;;3.40;0.55;;;;;;;;;;5053736;28;20017;-67
2021/10/30 01:31:51;;;;;;;1.58;0.50;;;;;;;;;;5053219;28;20021;-66
2021/10/30 01:34:16;;;;;;;0.82;0.40;;;;;;;;;;5053370;28;20476;-65
2021/10/30 01:36:42;;;;;;;0.98;0.40;;;;;;;;;;5053324;28;20349;-67
2021/10/30 01:39:09;;;;;;;2.17;0.70;;;;;;;;;;5053228;28;20353;-67
2021/10/30 01:41:35;;;;;;;2.65;0.50;;;;;;;;;;5052924;28;20036;-66
2021/10/30 01:44:01;;;;;;;0.55;0.50;;;;;;;;;;5053294;28;20029;-66
2021/10/30 01:46:26;;;;;;;2.97;1.30;;;;;;;;;;5053145;28;20107;-67
2021/10/30 01:48:52;;;;;;;0.20;0.20;;;;;;;;;;5052913;28;20457;-66
2021/10/30 01:51:18;;;;;;;1.48;0.50;;;;;;;;;;5053282;28;20413;-66
2021/10/30 01:53:43;;;;;;;1.30;0.40;;;;;;;;;;5052990;28;20067;-67
2021/10/30 01:56:09;;;;;;;0.82;0.32;;;;;;;;;;5053319;28;20032;-67
2021/10/30 01:58:35;;;;;;;0.52;0.40;;;;;;;;;;5051811;28;20410;-66
2021/10/30 02:01:01;;;;;;;0.80;0.50;;;;;;;;;;5052998;28;20111;-66
2021/10/30 02:03:29;;;;;;;0.47;0.30;;;;;;;;;;5052730;28;20032;-67
2021/10/30 02:05:54;;;;;;;1.63;0.52;;;;;;;;;;5052970;28;20019;-67
2021/10/30 02:08:20;;;;;;;1.00;0.35;;;;;;;;;;5053100;28;20376;-65
2021/10/30 02:10:45;;;;;;;0.75;0.30;;;;;;;;;;5052684;28;20063;-67
2021/10/30 02:13:11;;;;;;;0.65;0.30;;;;;;;;;;5053014;28;20017;-67
2021/10/30 02:15:36;;;;;;;0.98;0.32;;;;;;;;;;5052975;28;20033;-66
2021/10/30 02:18:02;;;;;;;2.05;0.30;;;;;;;;;;5052922;28;20483;-67
2021/10/30 02:20:27;;;;;;;1.23;0.55;;;;;;;;;;5053030;28;20029;-66
2021/10/30 02:22:53;;;;;;;0.40;0.40;;;;;;;;;;5052831;28;20025;-66
2021/10/30 02:25:19;;;;;;;0.82;0.40;;;;;;;;;;5057110;28;20024;-66
2021/10/30 02:27:44;;;;;;;0.85;0.38;;;;;;;;;;5056522;28;20463;-66
2021/10/30 02:30:10;;;;;;;0.80;0.32;;;;;;;;;;5057084;28;20119;-67
2021/10/30 02:32:35;;;;;;;2.05;0.75;;;;;;;;;;5056874;28;20044;-65
2021/10/30 02:35:00;;;;;;;1.50;0.30;;;;;;;;;;5056535;28;20032;-66
2021/10/30 02:37:26;;;;;;;1.33;0.45;;;;;;;;;;5056835;28;20028;-67
2021/10/30 02:39:51;;;;;;;0.95;0.32;;;;;;;;;;5056664;28;20024;-66
2021/10/30 02:42:16;;;;;;;0.98;0.28;;;;;;;;;;5056304;28;20028;-65
2021/10/30 02:44:42;;;;;;;4.13;0.50;;;;;;;;;;5056633;28;20017;-66
2021/10/30 02:47:07;;;;;;;2.00;0.45;;;;;;;;;;5056679;28;20051;-67
2021/10/30 02:49:33;;;;;;;1.63;0.40;;;;;;;;;;5055254;28;20476;-66
2021/10/30 02:51:58;;;;;;;2.05;0.30;;;;;;;;;;5056415;28;20036;-66
2021/10/30 02:54:24;;;;;;;2.78;0.82;;;;;;;;;;5056615;28;20013;-67
2021/10/30 02:56:49;;;;;;;1.52;0.38;;;;;;;;;;5056089;28;20020;-66
2021/10/30 02:59:14;;;;;;;0.65;0.40;;;;;;;;;;5056380;28;20013;-65
2021/10/30 03:01:39;;;;;;;0.30;0.28;;;;;;;;;;5056207;28;20049;-66
2021/10/30 03:04:05;;;;;;;1.60;0.57;;;;;;;;;;5056204;28;20023;-67
2021/10/30 03:06:31;;;;;;;2.55;0.38;;;;;;;;;;5056164;28;20257;-66
2021/10/30 03:08:57;;;;;;;3.30;0.38;;;;;;;;;;5056374;28;20375;-66
2021/10/30 03:11:22;;;;;;;0.80;0.32;;;;;;;;;;5055963;28;20021;-65
2021/10/30 03:13:47;;;;;;;0.73;0.30;;;;;;;;;;5056104;28;20456;-67
2021/10/30 03:16:13;;;;;;;2.42;0.50;;;;;;;;;;5056165;28;20353;-67
2021/10/30 03:18:38;;;;;;;2.20;0.45;;;;;;;;;;5055657;28;20032;-65
2021/10/30 03:21:04;;;;;;;0.95;0.45;;;;;;;;;;5056123;28;20017;-67
2021/10/30 03:23:29;;;;;;;3.72;0.57;;;;;;;;;;5055873;28;20032;-66
2021/10/30 03:25:54;;;;;;;3.38;0.80;;;;;;;;;;5055528;28;20019;-66
2021/10/30 03:28:20;;;;;;;0.73;0.50;;;;;;;;;;5055748;28;20079;-66
2021/10/30 03:30:45;;;;;;;2.08;0.45;;;;;;;;;;5055841;28;20021;-66
2021/10/30 03:33:10;;;;;;;0.32;0.32;;;;;;;;;;5055853;28;20096;-67
2021/10/30 03:35:36;;;;;;;1.17;0.60;;;;;;;;;;5054882;28;20592;-65
2021/10/30 03:38:01;;;;;;;1.40;0.65;;;;;;;;;;5055892;28;20021;-65
2021/10/30 03:40:27;;;;;;;2.15;1.00;;;;;;;;;;5055397;28;20032;-66
2021/10/30 03:42:53;;;;;;;0.95;0.38;;;;;;;;;;5055541;28;20029;-66
2021/10/30 03:45:18;;;;;;;3.78;0.75;;;;;;;;;;5055295;28;20341;-66
2021/10/30 03:47:43;;;;;;;1.85;0.43;;;;;;;;;;5055700;28;20021;-65
2021/10/30 03:50:09;;;;;;;1.88;0.38;;;;;;;;;;5055427;28;20094;-67
2021/10/30 03:52:34;;;;;;;1.23;0.30;;;;;;;;;;5055265;28;20052;-66
2021/10/30 03:54:59;;;;;;;2.65;0.55;;;;;;;;;;5055080;28;20043;-64
2021/10/30 03:57:24;;;;;;;1.23;0.35;;;;;;;;;;5055363;28;20392;-65
2021/10/30 03:59:50;;;;;;;0.87;0.30;;;;;;;;;;5055151;28;20547;-67
2021/10/30 04:02:15;;;;;;;2.70;0.38;;;;;;;;;;5055068;28;20301;-66
2021/10/30 04:04:40;;;;;;;1.70;0.50;;;;;;;;;;5054989;28;20531;-65
2021/10/30 04:07:06;;;;;;;1.77;0.50;;;;;;;;;;5055029;28;20480;-67
2021/10/30 04:09:31;;;;;;;3.30;0.50;;;;;;;;;;5055106;28;20013;-65
2021/10/30 04:11:56;;;;;;;1.30;0.40;;;;;;;;;;5054820;28;20039;-65
2021/10/30 04:14:22;;;;;;;1.50;0.30;;;;;;;;;;5054975;28;20090;-66
2021/10/30 04:16:47;;;;;;;1.48;0.47;;;;;;;;;;5054688;28;20739;-67
2021/10/30 04:19:13;;;;;;;1.20;0.37;;;;;;;;;;5054829;28;20017;-64
2021/10/30 04:21:39;;;;;;;1.85;0.40;;;;;;;;;;5054525;28;20252;-65
2021/10/30 04:24:04;;;;;;;2.65;0.70;;;;;;;;;;5054414;28;20029;-67
2021/10/30 04:26:29;;;;;;;1.50;0.38;;;;;;;;;;5054825;28;20048;-66
2021/10/30 04:28:55;;;;;;;1.40;0.30;;;;;;;;;;5054707;28;20021;-65
2021/10/30 04:31:28;;;;;;;1.17;0.40;;;;;;;;;;5054545;28;20088;-65
2021/10/30 04:33:57;;;;;;;0.75;0.38;;;;;;;;;;5054501;28;20017;-65
2021/10/30 04:36:25;;;;;;;3.10;0.93;;;;;;;;;;5054636;28;20017;-65
2021/10/30 04:38:50;;;;;;;0.65;0.40;;;;;;;;;;5053989;28;20028;-66
2021/10/30 04:41:17;;;;;;;3.35;0.60;;;;;;;;;;5054610;28;20025;-66
2021/10/30 04:43:43;;;;;;;0.50;0.30;;;;;;;;;;5054260;28;20017;-65
2021/10/30 04:46:08;;;;;;;2.35;0.50;;;;;;;;;;5054417;28;20379;-65
2021/10/30 04:48:34;;;;;;;1.20;0.30;;;;;;;;;;5054021;28;20017;-66
2021/10/30 04:51:00;;;;;;;4.10;0.73;;;;;;;;;;5053072;28;20017;-65
2021/10/30 04:53:25;;;;;;;0.63;0.30;;;;;;;;;;5054314;28;20392;-64
2021/10/30 04:55:50;;;;;;;1.02;0.40;;;;;;;;;;5054092;28;20056;-65
2021/10/30 04:58:16;;;;;;;0.88;0.28;;;;;;;;;;5053963;28;20364;-66
2021/10/30 05:00:41;;;;;;;1.92;0.40;;;;;;;;;;5053596;28;20524;-65
2021/10/30 05:03:06;;;;;;;0.40;0.37;;;;;;;;;;5054410;28;20112;-65
2021/10/30 05:05:31;;;;;;;0.15;0.13;;;;;;;;;;5053927;28;20255;-65
2021/10/30 05:07:56;;;;;;;1.08;0.30;;;;;;;;;;5053854;28;20033;-66
2021/10/30 05:10:22;;;;;;;2.58;0.38;;;;;;;;;;5053971;28;20028;-65
2021/10/30 05:12:47;;;;;;;1.02;0.20;;;;;;;;;;5053813;28;20028;-65
2021/10/30 05:15:12;;;;;;;2.03;0.50;;;;;;;;;;5053624;28;20028;-66
2021/10/30 05:17:37;;;;;;;1.40;0.30;;;;;;;;;;5053430;28;20048;-65
2021/10/30 05:20:03;;;;;;;2.45;0.60;;;;;;;;;;5053814;28;20333;-64
2021/10/30 05:22:28;;;;;;;0.85;0.30;;;;;;;;;;5053468;28;20028;-66
2021/10/30 05:24:53;;;;;;;1.55;0.30;;;;;;;;;;5053581;28;20059;-67
2021/10/30 05:27:19;;;;;;;1.10;0.30;;;;;;;;;;5053727;28;20100;-65
2021/10/30 05:29:44;;;;;;;0.55;0.35;;;;;;;;;;5053505;28;20043;-65
2021/10/30 05:32:09;;;;;;;0.47;0.20;;;;;;;;;;5053619;28;20021;-66
2021/10/30 05:34:34;;;;;;;4.85;0.85;;;;;;;;;;5053360;28;20605;-67
2021/10/30 05:37:00;;;;;;;0.57;0.20;;;;;;;;;;5053559;28;20120;-65
2021/10/30 05:39:25;;;;;;;2.55;0.77;;;;;;;;;;5053493;28;20099;-66
2021/10/30 05:41:50;;;;;;;0.95;0.30;;;;;;;;;;5053139;28;20024;-66
2021/10/30 05:44:16;;;;;;;1.75;0.30;;;;;;;;;;5053229;28;20024;-65
2021/10/30 05:46:41;;;;;;;1.58;0.30;;;;;;;;;;5052917;28;20025;-64
2021/10/30 05:49:07;;;;;;;1.08;0.20;;;;;;;;;;5053411;28;20063;-66
2021/10/30 05:51:33;;;;;;;1.55;0.30;;;;;;;;;;5053233;28;20076;-66
2021/10/30 05:53:59;;;;;;;2.67;0.47;;;;;;;;;;5053132;28;20472;-65
2021/10/30 05:56:24;;;;;;;0.80;0.50;;;;;;;;;;5053195;28;20036;-65
2021/10/30 05:58:50;;;;;;;1.35;0.20;;;;;;;;;;5052377;28;20028;-66
2021/10/30 06:01:15;;;;;;;0.80;0.20;;;;;;;;;;5053049;28;20643;-65
2021/10/30 06:03:40;;;;;;;1.40;0.17;;;;;;;;;;5052745;28;20116;-65
2021/10/30 06:06:06;;;;;;;0.57;0.27;;;;;;;;;;5052607;28;20258;-66
2021/10/30 06:08:31;;;;;;;2.92;0.77;;;;;;;;;;5053135;28;20740;-67
2021/10/30 06:10:56;;;;;;;1.98;0.40;;;;;;;;;;5053043;28;20084;-65
2021/10/30 06:13:22;;;;;;;0.90;0.30;;;;;;;;;;5052765;28;20025;-64
2021/10/30 06:15:47;;;;;;;0.43;0.32;;;;;;;;;;5052723;28;20028;-66
2021/10/30 06:18:12;;;;;;;2.22;0.45;;;;;;;;;;5052679;28;20361;-66
2021/10/30 06:20:38;;;;;;;1.40;0.50;;;;;;;;;;5052914;28;20055;-65
2021/10/30 06:23:04;;;;;;;1.10;0.32;;;;;;;;;;5052899;28;20709;-66
2021/10/30 06:25:30;;;;;;;1.90;0.30;;;;;;;;;;5052930;28;20032;-66
2021/10/30 06:27:55;;;;;;;1.90;0.60;;;;;;;;;;5052627;28;20017;-65
2021/10/30 06:30:21;;;;;;;1.05;0.40;;;;;;;;;;5052973;28;20793;-65
2021/10/30 06:32:46;;;;;;;1.40;0.30;;;;;;;;;;5052631;28;20071;-66
2021/10/30 06:35:11;;;;;;;2.20;0.55;;;;;;;;;;5052723;28;20250;-66
2021/10/30 06:37:40;;;;;;;0.77;0.22;;;;;;;;;;5052590;28;20532;-64
2021/10/30 06:40:09;;;;;;;1.33;0.30;;;;;;;;;;5052758;28;20029;-65
2021/10/30 06:42:35;;;;;;;1.25;0.20;;;;;;;;;;5051190;28;20048;-65
2021/10/30 06:45:00;;;;;;;0.50;0.23;;;;;;;;;;5052544;28;20075;-66
2021/10/30 06:47:25;;;;;;;0.90;0.40;;;;;;;;;;5052431;28;20693;-65
2021/10/30 06:49:52;;;;;;;0.93;0.50;;;;;;;;;;5052512;28;20047;-66
2021/10/30 06:52:18;;;;;;;2.78;0.52;;;;;;;;;;5051449;28;20045;-66
2021/10/30 06:54:43;;;;;;;0.80;0.15;;;;;;;;;;5052354;28;20078;-65
2021/10/30 06:57:08;;;;;;;1.37;0.43;;;;;;;;;;5052690;28;20380;-65
2021/10/30 06:59:35;;;;;;;0.63;0.20;;;;;;;;;;5052503;28;20254;-66
2021/10/30 07:02:01;;;;;;;1.33;0.22;;;;;;;;;;5051962;28;20053;-66
2021/10/30 07:04:26;;;;;;;1.27;0.47;;;;;;;;;;5052554;28;20021;-65
2021/10/30 07:06:51;;;;;;;1.95;0.28;;;;;;;;;;5052331;28;20101;-65
2021/10/30 07:09:17;;;;;;;2.17;0.32;;;;;;;;;;5052489;28;20468;-67
2021/10/30 07:11:44;;;;;;;0.60;0.20;;;;;;;;;;5055190;28;20490;-66
2021/10/30 07:14:09;;;;;;;2.05;0.47;;;;;;;;;;5056116;28;20020;-65
2021/10/30 07:16:34;;;;;;;1.25;0.52;;;;;;;;;;5055643;28;20020;-66
2021/10/30 07:19:00;;;;;;;4.97;0.30;;;;;;;;;;5056148;28;20415;-65
2021/10/30 07:21:25;;;;;;;0.55;0.20;;;;;;;;;;5055786;28;20254;-65
2021/10/30 07:23:52;;;;;;;1.85;0.52;;;;;;;;;;5055824;28;20028;-65
2021/10/30 07:26:17;;;;;;;1.95;0.20;;;;;;;;;;5055726;28;20021;-67
2021/10/30 07:28:42;;;;;;;1.17;0.30;;;;;;;;;;5055615;28;20017;-66
2021/10/30 07:31:07;;;;;;;1.23;0.30;;;;;;;;;;5056009;28;20290;-64
2021/10/30 07:33:34;;;;;;;1.15;0.20;;;;;;;;;;5055728;28;20483;-67
2021/10/30 07:35:59;;;;;;;0.55;0.20;;;;;;;;;;5055740;28;20032;-67
2021/10/30 07:38:24;;;;;;;2.63;0.98;;;;;;;;;;5055709;28;20025;-66
2021/10/30 07:40:50;;;;;;;0.90;0.20;;;;;;;;;;5055164;28;20033;-65
2021/10/30 07:43:16;;;;;;;1.42;0.30;;;;;;;;;;5055382;28;20029;-66
2021/10/30 07:45:42;;;;;;;1.65;0.50;;;;;;;;;;5054102;28;20040;-66
2021/10/30 07:48:08;;;;;;;2.35;0.47;;;;;;;;;;5055398;28;20028;-65
2021/10/30 07:50:34;;;;;;;2.92;0.40;;;;;;;;;;5055477;28;20059;-66
2021/10/30 07:53:00;;;;;;;2.50;0.70;;;;;;;;;;5055538;28;20027;-66
2021/10/30 07:55:26;;;;;;;0.70;0.20;;;;;;;;;;5055401;28;20029;-66
2021/10/30 07:57:51;;;;;;;1.07;0.30;;;;;;;;;;5055119;28;20031;-64
2021/10/30 08:00:16;;;;;;;1.13;0.20;;;;;;;;;;5055309;28;20601;-66
2021/10/30 08:02:42;;;;;;;1.05;0.28;;;;;;;;;;5054872;28;20048;-66
2021/10/30 08:05:07;;;;;;;2.47;0.52;;;;;;;;;;5054917;28;20029;-66
2021/10/30 08:07:33;;;;;;;1.10;0.20;;;;;;;;;;5055076;28;20482;-66
2021/10/30 08:10:00;;;;;;;0.47;0.20;;;;;;;;;;5055201;28;20013;-66
2021/10/30 08:12:25;;;;;;;1.85;0.30;;;;;;;;;;5053868;28;20468;-66
2021/10/30 08:14:50;;;;;;;0.82;0.43;;;;;;;;;;5054796;28;20032;-65
2021/10/30 08:17:15;;;;;;;0.65;0.15;;;;;;;;;;5055055;28;20025;-66
2021/10/30 08:19:40;;;;;;;1.17;0.30;;;;;;;;;;5054651;28;20020;-66
2021/10/30 08:22:06;;;;;;;2.88;0.40;;;;;;;;;;5054319;28;20265;-65
2021/10/30 08:24:32;;;;;;;1.00;0.30;;;;;;;;;;5055079;28;20353;-65
2021/10/30 08:26:57;;;;;;;2.45;0.45;;;;;;;;;;5053596;28;20107;-67
2021/10/30 08:29:22;;;;;;;0.93;0.40;;;;;;;;;;5054829;28;20091;-66
2021/10/30 08:31:48;;;;;;;0.88;0.40;;;;;;;;;;5054719;28;20019;-65
2021/10/30 08:34:13;;;;;;;0.75;0.43;;;;;;;;;;5054860;28;20053;-66
2021/10/30 08:36:38;;;;;;;1.70;0.40;;;;;;;;;;5054516;28;20021;-66
2021/10/30 08:39:04;;;;;;;5.55;0.60;;;;;;;;;;5054333;28;20460;-65
2021/10/30 08:41:29;;;;;;;1.75;0.40;;;;;;;;;;5054887;28;20025;-65
2021/10/30 08:43:54;;;;;;;0.60;0.40;;;;;;;;;;5054024;28;20093;-66
2021/10/30 08:46:20;;;;;;;2.00;0.35;;;;;;;;;;5054451;28;20067;-66
2021/10/30 08:48:45;;;;;;;1.58;0.30;;;;;;;;;;5053949;28;20365;-65
2021/10/30 08:51:11;;;;;;;0.17;0.17;;;;;;;;;;5054515;28;20096;-64
2021/10/30 08:53:36;;;;;;;2.05;0.30;;;;;;;;;;5054189;28;20126;-66
2021/10/30 08:56:05;;;;;;;1.27;0.30;;;;;;;;;;5054265;28;20444;-66
2021/10/30 08:58:31;;;;;;;3.80;0.65;;;;;;;;;;5052941;28;20025;-65
2021/10/30 09:00:58;;;;;;;0.88;0.22;;;;;;;;;;5052618;28;20040;-66
2021/10/30 09:03:23;;;;;;;2.53;0.80;;;;;;;;;;5052818;28;20017;-66
2021/10/30 09:05:53;;;;;;;0.50;0.30;;;;;;;;;;5053884;28;20092;-65
2021/10/30 09:08:20;;;;;;;0.90;0.20;;;;;;;;;;5054021;28;20044;-65
2021/10/30 09:10:56;;;;;;;0.98;0.30;;;;;;;;;;5053787;28;20012;-66
2021/10/30 09:13:26;;;;;;;0.80;0.25;;;;;;;;;;5053958;28;20024;-65
2021/10/30 09:15:51;;;;;;;1.88;0.20;;;;;;;;;;5053783;28;20049;-66
2021/10/30 09:18:29;;;;;;;0.55;0.30;;;;;;;;;;5053908;28;20063;-66
2021/10/30 09:20:56;;;;;;;1.98;0.65;;;;;;;;;;5053587;28;20063;-65
2021/10/30 09:23:24;;;;;;;0.70;0.40;;;;;;;;;;5053439;28;20021;-65
2021/10/30 09:25:55;;;;;;;1.90;0.30;;;;;;;;;;5053487;28;20464;-66
2021/10/30 09:28:21;;;;;;;1.05;0.40;;;;;;;;;;5053530;28;20017;-65
2021/10/30 09:30:47;;;;;;;1.33;0.52;;;;;;;;;;5053105;28;20013;-64
2021/10/30 09:33:12;;;;;;;0.85;0.28;;;;;;;;;;5052963;28;20067;-66
2021/10/30 09:35:42;;;;;;;2.70;0.68;;;;;;;;;;5053269;28;20044;-66
2021/10/30 09:38:24;;;;;;;1.60;0.50;;;;;;;;;;5053376;28;20052;-65
2021/10/30 09:40:50;;;;;;;0.88;0.20;;;;;;;;;;5053203;28;20344;-66
2021/10/30 09:43:16;;;;;;;2.95;0.40;;;;;;;;;;5053455;28;20032;-66
2021/10/30 09:45:49;;;;;;;1.75;0.40;;;;;;;;;;5051973;28;20017;-65
2021/10/30 09:48:27;;;;;;;0.98;0.30;;;;;;;;;;5053377;28;20024;-66
2021/10/30 09:50:53;;;;;;;1.25;0.40;;;;;;;;;;5052847;28;20099;-65
2021/10/30 09:53:29;;;;;;;3.92;1.23;;;;;;;;;;5053412;28;20017;-66
2021/10/30 09:55:56;;;;;;;0.82;0.60;;;;;;;;;;5053066;28;20021;-66
2021/10/30 09:58:29;;;;;;;1.17;0.30;;;;;;;;;;5053264;28;20028;-66
2021/10/30 10:00:56;;;;;;;2.23;0.57;;;;;;;;;;5052749;28;20384;-65
2021/10/30 10:03:22;;;;;;;1.50;0.45;;;;;;;;;;5053223;28;20460;-66
2021/10/30 10:05:48;;;;;;;2.47;0.30;;;;;;;;;;5052672;28;20051;-66
2021/10/30 10:08:14;;;;;;;0.98;0.40;;;;;;;;;;5053085;28;20103;-65
2021/10/30 10:10:39;;;;;;;2.47;0.45;;;;;;;;;;5052898;28;20029;-66
2021/10/30 10:13:04;;;;;;;1.35;0.30;;;;;;;;;;5053132;28;20031;-66
2021/10/30 10:15:30;;;;;;;0.30;0.20;;;;;;;;;;5052670;28;20028;-67
2021/10/30 10:17:56;;;;;;;2.42;0.50;;;;;;;;;;5052924;28;20368;-65
2021/10/30 10:20:22;;;;;;;2.47;0.80;;;;;;;;;;5053048;28;20380;-65
2021/10/30 10:22:47;;;;;;;1.33;0.40;;;;;;;;;;5052709;28;20028;-66
2021/10/30 10:25:23;;;;;;;1.27;0.43;;;;;;;;;;5052746;28;20021;-65
2021/10/30 10:27:49;;;;;;;2.70;0.55;;;;;;;;;;5052601;28;20092;-64
2021/10/30 10:30:14;;;;;;;1.17;0.40;;;;;;;;;;5053073;28;20048;-66
2021/10/30 10:32:39;;;;;;;0.73;0.47;;;;;;;;;;5052680;28;20029;-66
2021/10/30 10:35:05;;;;;;;0.70;0.30;;;;;;;;;;5053058;28;20379;-66
2021/10/30 10:37:31;;;;;;;2.05;0.55;;;;;;;;;;5052711;28;20033;-65
2021/10/30 10:39:57;;;;;;;0.82;0.40;;;;;;;;;;5052757;28;20036;-66
2021/10/30 10:42:35;;;;;;;1.05;0.40;;;;;;;;;;5052632;28;20460;-65
2021/10/30 10:45:07;;;;;;;2.22;0.75;;;;;;;;;;5054616;28;20108;-64
2021/10/30 10:47:35;;;;;;;2.92;0.70;;;;;;;;;;5056583;28;20024;-66
2021/10/30 10:50:06;;;;;;;0.98;0.40;;;;;;;;;;5056260;28;20028;-66
2021/10/30 10:52:31;;;;;;;1.05;0.32;;;;;;;;;;5056414;28;20520;-65
2021/10/30 10:54:58;;;;;;;0.80;0.25;;;;;;;;;;5056433;28;20264;-66
2021/10/30 10:57:24;;;;;;;1.00;0.57;;;;;;;;;;5056679;28;20051;-66
2021/10/30 11:00:08;;;;;;;1.25;0.30;;;;;;;;;;5056262;28;20028;-65
2021/10/30 11:02:33;;;;;;;;;;;;;;;;;;5056588;28;20049;-65
2021/10/30 11:05:07;;;;;;;1.40;0.43;;;;;;;;;;5056311;28;19909;-66
2021/10/30 11:07:37;;;;;;;1.50;0.40;;;;;;;;;;5056231;28;20021;-65
2021/10/30 11:10:09;;;;;;;2.97;0.52;;;;;;;;;;5056120;28;20029;-65
2021/10/30 11:12:35;;;;;;;0.70;0.45;;;;;;;;;;5055881;28;20024;-65
2021/10/30 11:15:11;;;;;;;0.77;0.35;;;;;;;;;;5056177;28;20032;-65
2021/10/30 11:17:46;;;;;;;2.20;0.50;;;;;;;;;;5055859;28;20379;-66
2021/10/30 11:20:13;;;;;;;1.20;0.52;;;;;;;;;;5055832;28;20013;-66
2021/10/30 11:22:54;;;;;;;0.77;0.30;;;;;;;;;;5055580;28;20032;-65
2021/10/30 11:25:19;;;;;;;1.08;0.30;;;;;;;;;;5056061;28;20009;-66
2021/10/30 11:27:51;;;;;;;1.10;0.40;;;;;;;;;;5055773;28;20096;-66
2021/10/30 11:30:17;;;;;;;0.50;0.30;;;;;;;;;;5055919;28;20067;-64
2021/10/30 11:32:42;;;;;;;1.20;0.40;;;;;;;;;;5055779;28;20013;-65
2021/10/30 11:35:12;;;;;;;1.33;0.77;;;;;;;;;;5055734;28;20029;-66
2021/10/30 11:37:40;;;;;;;1.42;0.30;;;;;;;;;;5055472;28;20073;-65
2021/10/30 11:40:06;;;;;;;1.15;0.45;;;;;;;;;;5055511;28;20028;-65
2021/10/30 11:42:31;;;;;;;1.95;0.45;;;;;;;;;;5055423;28;20063;-66
2021/10/30 11:44:56;;;;;;;3.10;1.17;;;;;;;;;;5055517;28;20116;-66
2021/10/30 11:47:26;;;;;;;1.88;0.45;;;;;;;;;;5055596;28;20021;-65
2021/10/30 11:49:52;;;;;;;0.90;0.40;;;;;;;;;;5055420;28;20471;-67
2021/10/30 11:52:17;;;;;;;1.13;0.40;;;;;;;;;;5055203;28;20025;-65
2021/10/30 11:54:43;;;;;;;3.33;0.40;;;;;;;;;;5055319;28;20440;-64
2021/10/30 11:57:09;;;;;;;1.00;0.30;;;;;;;;;;5054557;28;20029;-65
2021/10/30 11:59:34;;;;;;;1.58;0.40;;;;;;;;;;5054992;28;20250;-66
2021/10/30 12:02:00;;;;;;;1.08;0.30;;;;;;;;;;5055160;28;20041;-66
2021/10/30 12:04:32;;;;;;;2.85;0.80;;;;;;;;;;5055118;28;20371;-65
2021/10/30 12:07:01;;;;;;;1.33;0.40;;;;;;;;;;5055177;28;20017;-66
2021/10/30 12:09:28;;;;;;;1.17;0.40;;;;;;;;;;5055143;28;20025;-65
2021/10/30 12:11:57;;;;;;;3.90;0.65;;;;;;;;;;5055066;28;20092;-64
2021/10/30 12:14:27;;;;;;;1.80;0.40;;;;;;;;;;5054911;28;20052;-65
2021/10/30 12:16:53;;;;;;;2.05;0.60;;;;;;;;;;5054644;28;20021;-66
2021/10/30 12:19:20;;;;;;;2.17;0.85;;;;;;;;;;5055043;28;20067;-66
2021/10/30 12:21:45;;;;;;;3.08;0.40;;;;;;;;;;5054929;28;20025;-65
2021/10/30 12:24:15;;;;;;;1.70;0.53;;;;;;;;;;5054779;28;20371;-65
2021/10/30 12:26:57;;;;;;;1.50;0.63;;;;;;;;;;5054643;28;20709;-66
2021/10/30 12:29:24;;;;;;;0.95;0.40;;;;;;;;;;5054738;28;20036;-67
2021/10/30 12:32:16;;;;;;;1.45;0.35;;;;;;;;;;5054662;28;20345;-66
2021/10/30 12:34:57;;;;;;;3.22;0.80;;;;;;;;;;5051219;28;20464;-65
2021/10/30 12:37:24;;;;;;;2.00;0.50;;;;;;;;;;5054497;28;20036;-65
2021/10/30 12:39:55;;;;;;;0.88;0.45;;;;;;;;;;5054229;28;20058;-65
2021/10/30 12:42:20;;;;;;;1.00;0.35;;;;;;;;;;5054421;28;20017;-65
2021/10/30 12:44:48;;;;;;;1.07;0.60;;;;;;;;;;5053314;28;20016;-66
2021/10/30 12:47:14;;;;;;;1.73;0.40;;;;;;;;;;5054136;28;20292;-66
2021/10/30 12:49:43;;;;;;;1.60;0.50;;;;;;;;;;5054282;28;20025;-65
2021/10/30 12:52:09;;;;;;;0.65;0.30;;;;;;;;;;5054030;28;20116;-65
2021/10/30 12:54:37;;;;;;;0.70;0.57;;;;;;;;;;5054210;28;20091;-66
2021/10/30 12:57:03;;;;;;;0.98;0.40;;;;;;;;;;5054199;28;20024;-65
2021/10/30 12:59:38;;;;;;;0.85;0.40;;;;;;;;;;5054384;28;20021;-65
2021/10/30 13:02:03;;;;;;;0.57;0.40;;;;;;;;;;5053853;28;20396;-66
2021/10/30 13:04:30;;;;;;;0.88;0.50;;;;;;;;;;5053928;28;20017;-66
2021/10/30 13:07:00;;;;;;;2.00;0.55;;;;;;;;;;5054024;28;20032;-65
2021/10/30 13:09:26;;;;;;;2.40;0.85;;;;;;;;;;5053209;28;20021;-66
2021/10/30 13:11:51;;;;;;;2.42;0.40;;;;;;;;;;5053539;28;20066;-65
2021/10/30 13:14:16;;;;;;;2.88;0.50;;;;;;;;;;5053855;28;20024;-64
2021/10/30 13:16:41;;;;;;;2.33;0.50;;;;;;;;;;5053726;28;20461;-66
2021/10/30 13:19:07;;;;;;;0.73;0.35;;;;;;;;;;5053828;28;20273;-66
2021/10/30 13:21:32;;;;;;;2.35;0.40;;;;;;;;;;5053738;28;20017;-65
2021/10/30 13:23:58;;;;;;;2.60;0.45;;;;;;;;;;5053416;28;20472;-65
2021/10/30 13:26:24;;;;;;;1.95;0.60;;;;;;;;;;5053921;28;20420;-66
2021/10/30 13:28:50;;;;;;;1.05;0.50;;;;;;;;;;5053230;28;20021;-66
2021/10/30 13:31:16;;;;;;;0.50;0.40;;;;;;;;;;5053757;28;20132;-64
2021/10/30 13:33:41;;;;;;;1.00;0.50;;;;;;;;;;5053376;28;20056;-65
2021/10/30 13:36:07;;;;;;;1.67;0.45;;;;;;;;;;5053601;28;20029;-66
2021/10/30 13:38:32;;;;;;;2.75;0.32;;;;;;;;;;5053316;28;20099;-65
2021/10/30 13:41:00;;;;;;;0.98;0.50;;;;;;;;;;5053388;28;20104;-66
2021/10/30 13:43:25;;;;;;;1.67;0.73;;;;;;;;;;5053436;28;20074;-66
2021/10/30 13:45:50;;;;;;;3.03;0.82;;;;;;;;;;5052894;28;20449;-65
2021/10/30 13:48:15;;;;;;;2.72;0.35;;;;;;;;;;5053429;28;20040;-64
2021/10/30 13:50:41;;;;;;;1.08;0.50;;;;;;;;;;5052775;28;20021;-65
2021/10/30 13:53:06;;;;;;;2.20;0.40;;;;;;;;;;5052107;28;20029;-66
2021/10/30 13:55:31;;;;;;;3.20;0.63;;;;;;;;;;5053158;28;20060;-65
2021/10/30 13:57:56;;;;;;;4.07;0.50;;;;;;;;;;5052849;28;20036;-65
2021/10/30 14:00:22;;;;;;;1.15;0.45;;;;;;;;;;5053106;28;20483;-67
2021/10/30 14:02:47;;;;;;;2.80;0.70;;;;;;;;;;5052755;28;20056;-65
2021/10/30 14:05:14;;;;;;;1.60;0.52;;;;;;;;;;5053090;28;20380;-64
2021/10/30 14:07:39;;;;;;;3.15;0.77;;;;;;;;;;5052914;28;20021;-65
2021/10/30 14:10:05;;;;;;;2.85;0.50;;;;;;;;;;5052910;28;20013;-66
2021/10/30 14:12:30;;;;;;;1.77;0.75;;;;;;;;;;5053047;28;20415;-65
2021/10/30 14:14:55;;;;;;;2.83;0.45;;;;;;;;;;5052605;28;20024;-65
2021/10/30 14:17:20;;;;;;;2.17;0.80;;;;;;;;;;5053243;28;20031;-66
2021/10/30 14:19:46;;;;;;;0.93;0.40;;;;;;;;;;5054629;28;20055;-65
2021/10/30 14:22:11;;;;;;;1.10;0.43;;;;;;;;;;5056974;28;20025;-64
2021/10/30 14:24:36;;;;;;;1.50;0.53;;;;;;;;;;5056833;28;20021;-65
2021/10/30 14:27:02;;;;;;;1.73;0.50;;;;;;;;;;5056996;28;20273;-66
2021/10/30 14:29:27;;;;;;;1.60;0.60;;;;;;;;;;5056924;28;20262;-65
2021/10/30 14:31:57;;;;;;;2.93;0.70;;;;;;;;;;5056915;28;20021;-65
2021/10/30 14:34:22;;;;;;;2.50;0.70;;;;;;;;;;5057040;28;20068;-66
2021/10/30 14:36:47;;;;;;;2.13;0.50;;;;;;;;;;5056795;28;20025;-65
2021/10/30 14:39:12;;;;;;;0.52;0.32;;;;;;;;;;5056933;28;20020;-65